sensor_id;sensor_type;location;lat;lon;timestamp;P1;durP1;ratioP1;P2;durP2;ratioP2
78288;SDS011;67539;48.752;12.922;2023-02-18T00:00:05;3.30;;;3.10;;
78288;SDS011;67539;48.752;12.922;2023-02-18T00:02:35;4.77;;;4.00;;
78288;SDS011;67539;48.752;12.922;2023-02-18T00:05:03;5.27;;;3.07;;
78288;SDS011;67539;48.752;12.922;2023-02-18T00:07:32;3.70;;;3.40;;
78288;SDS011;67539;48.752;12.922;2023-02-18T00:10:02;4.67;;;3.47;;
78288;SDS011;67539;48.752;12.922;2023-02-18T00:12:31;3.87;;;3.57;;
78288;SDS011;67539;48.752;12.922;2023-02-18T00:15:00;3.70;;;3.40;;
78288;SDS011;67539;48.752;12.922;2023-02-18T00:17:28;3.03;;;2.83;;
78288;SDS011;67539;48.752;12.922;2023-02-18T00:19:56;3.13;;;2.83;;
78288;SDS011;67539;48.752;12.922;2023-02-18T00:22:25;3.00;;;2.80;;
78288;SDS011;67539;48.752;12.922;2023-02-18T00:24:53;3.60;;;3.40;;
78288;SDS011;67539;48.752;12.922;2023-02-18T00:27:21;3.40;;;3.20;;
78288;SDS011;67539;48.752;12.922;2023-02-18T00:29:49;3.70;;;3.40;;
78288;SDS011;67539;48.752;12.922;2023-02-18T00:32:18;5.10;;;4.00;;
78288;SDS011;67539;48.752;12.922;2023-02-18T00:34:46;3.77;;;3.40;;
78288;SDS011;67539;48.752;12.922;2023-02-18T00:37:14;3.67;;;3.37;;
78288;SDS011;67539;48.752;12.922;2023-02-18T00:39:42;4.17;;;3.77;;
78288;SDS011;67539;48.752;12.922;2023-02-18T00:42:11;5.03;;;3.90;;
78288;SDS011;67539;48.752;12.922;2023-02-18T00:44:40;4.10;;;3.80;;
78288;SDS011;67539;48.752;12.922;2023-02-18T00:47:08;3.63;;;3.40;;
78288;SDS011;67539;48.752;12.922;2023-02-18T00:49:37;4.00;;;3.70;;
78288;SDS011;67539;48.752;12.922;2023-02-18T00:52:06;4.30;;;3.23;;
78288;SDS011;67539;48.752;12.922;2023-02-18T00:54:34;4.13;;;3.67;;
78288;SDS011;67539;48.752;12.922;2023-02-18T00:57:02;3.50;;;3.30;;
78288;SDS011;67539;48.752;12.922;2023-02-18T00:59:30;4.10;;;3.70;;
78288;SDS011;67539;48.752;12.922;2023-02-18T01:01:59;3.10;;;2.90;;
78288;SDS011;67539;48.752;12.922;2023-02-18T01:04:27;3.80;;;3.50;;
78288;SDS011;67539;48.752;12.922;2023-02-18T01:06:57;3.27;;;3.07;;
78288;SDS011;67539;48.752;12.922;2023-02-18T01:09:25;4.27;;;3.87;;
78288;SDS011;67539;48.752;12.922;2023-02-18T01:11:53;4.80;;;3.27;;
78288;SDS011;67539;48.752;12.922;2023-02-18T01:14:21;4.10;;;3.27;;
78288;SDS011;67539;48.752;12.922;2023-02-18T01:16:49;3.50;;;3.30;;
78288;SDS011;67539;48.752;12.922;2023-02-18T01:19:17;3.20;;;3.00;;
78288;SDS011;67539;48.752;12.922;2023-02-18T01:21:45;3.50;;;3.30;;
78288;SDS011;67539;48.752;12.922;2023-02-18T01:24:15;3.53;;;3.23;;
78288;SDS011;67539;48.752;12.922;2023-02-18T01:26:43;3.40;;;3.20;;
78288;SDS011;67539;48.752;12.922;2023-02-18T01:29:11;2.77;;;2.57;;
78288;SDS011;67539;48.752;12.922;2023-02-18T01:31:39;2.87;;;2.70;;
78288;SDS011;67539;48.752;12.922;2023-02-18T01:34:07;2.80;;;2.63;;
78288;SDS011;67539;48.752;12.922;2023-02-18T01:36:35;2.90;;;2.70;;
78288;SDS011;67539;48.752;12.922;2023-02-18T01:39:03;2.80;;;2.70;;
78288;SDS011;67539;48.752;12.922;2023-02-18T01:41:33;2.77;;;2.57;;
78288;SDS011;67539;48.752;12.922;2023-02-18T01:44:14;3.13;;;2.93;;
78288;SDS011;67539;48.752;12.922;2023-02-18T01:46:44;2.73;;;2.60;;
78288;SDS011;67539;48.752;12.922;2023-02-18T01:49:14;3.47;;;3.20;;
78288;SDS011;67539;48.752;12.922;2023-02-18T01:51:46;2.50;;;2.40;;
78288;SDS011;67539;48.752;12.922;2023-02-18T01:54:17;3.43;;;2.50;;
78288;SDS011;67539;48.752;12.922;2023-02-18T01:56:50;2.73;;;2.60;;
78288;SDS011;67539;48.752;12.922;2023-02-18T01:59:23;3.17;;;2.97;;
78288;SDS011;67539;48.752;12.922;2023-02-18T02:01:53;2.90;;;2.70;;
78288;SDS011;67539;48.752;12.922;2023-02-18T02:04:21;3.63;;;2.90;;
78288;SDS011;67539;48.752;12.922;2023-02-18T02:06:50;3.30;;;3.10;;
78288;SDS011;67539;48.752;12.922;2023-02-18T02:09:21;2.53;;;2.40;;
78288;SDS011;67539;48.752;12.922;2023-02-18T02:14:53;2.30;;;2.20;;
78288;SDS011;67539;48.752;12.922;2023-02-18T02:17:45;2.43;;;2.33;;
78288;SDS011;67539;48.752;12.922;2023-02-18T02:20:34;2.30;;;2.20;;
78288;SDS011;67539;48.752;12.922;2023-02-18T02:26:40;2.63;;;2.50;;
78288;SDS011;67539;48.752;12.922;2023-02-18T02:32:58;4.83;;;2.67;;
78288;SDS011;67539;48.752;12.922;2023-02-18T02:35:44;4.27;;;2.80;;
78288;SDS011;67539;48.752;12.922;2023-02-18T02:38:18;2.60;;;2.40;;
78288;SDS011;67539;48.752;12.922;2023-02-18T02:40:51;2.50;;;2.40;;
78288;SDS011;67539;48.752;12.922;2023-02-18T02:43:30;2.60;;;2.40;;
78288;SDS011;67539;48.752;12.922;2023-02-18T02:46:05;2.83;;;2.57;;
78288;SDS011;67539;48.752;12.922;2023-02-18T02:48:40;2.17;;;2.07;;
78288;SDS011;67539;48.752;12.922;2023-02-18T02:51:15;2.63;;;2.53;;
78288;SDS011;67539;48.752;12.922;2023-02-18T02:53:48;2.10;;;2.00;;
78288;SDS011;67539;48.752;12.922;2023-02-18T02:56:17;2.37;;;2.27;;
78288;SDS011;67539;48.752;12.922;2023-02-18T02:58:56;4.90;;;2.90;;
78288;SDS011;67539;48.752;12.922;2023-02-18T03:01:35;2.43;;;2.33;;
78288;SDS011;67539;48.752;12.922;2023-02-18T03:04:19;3.30;;;2.87;;
78288;SDS011;67539;48.752;12.922;2023-02-18T03:07:07;2.70;;;2.50;;
78288;SDS011;67539;48.752;12.922;2023-02-18T03:10:06;7.50;;;2.30;;
78288;SDS011;67539;48.752;12.922;2023-02-18T03:12:46;3.17;;;2.07;;
78288;SDS011;67539;48.752;12.922;2023-02-18T03:15:20;1.90;;;1.80;;
78288;SDS011;67539;48.752;12.922;2023-02-18T03:17:51;2.33;;;2.23;;
78288;SDS011;67539;48.752;12.922;2023-02-18T03:20:25;2.23;;;2.10;;
78288;SDS011;67539;48.752;12.922;2023-02-18T03:23:01;2.20;;;2.10;;
78288;SDS011;67539;48.752;12.922;2023-02-18T03:25:34;1.80;;;1.70;;
78288;SDS011;67539;48.752;12.922;2023-02-18T03:28:06;3.37;;;1.90;;
78288;SDS011;67539;48.752;12.922;2023-02-18T03:30:39;2.40;;;2.20;;
78288;SDS011;67539;48.752;12.922;2023-02-18T03:33:10;1.70;;;1.60;;
78288;SDS011;67539;48.752;12.922;2023-02-18T03:35:42;2.13;;;1.60;;
78288;SDS011;67539;48.752;12.922;2023-02-18T03:38:15;2.03;;;1.93;;
78288;SDS011;67539;48.752;12.922;2023-02-18T03:40:48;4.80;;;1.73;;
78288;SDS011;67539;48.752;12.922;2023-02-18T03:43:17;1.60;;;1.50;;
78288;SDS011;67539;48.752;12.922;2023-02-18T03:45:45;2.33;;;1.80;;
78288;SDS011;67539;48.752;12.922;2023-02-18T03:48:13;1.70;;;1.60;;
78288;SDS011;67539;48.752;12.922;2023-02-18T03:50:42;1.63;;;1.53;;
78288;SDS011;67539;48.752;12.922;2023-02-18T03:53:10;2.20;;;1.40;;
78288;SDS011;67539;48.752;12.922;2023-02-18T03:55:40;1.73;;;1.60;;
78288;SDS011;67539;48.752;12.922;2023-02-18T03:58:08;1.80;;;1.60;;
78288;SDS011;67539;48.752;12.922;2023-02-18T04:00:36;1.60;;;1.50;;
78288;SDS011;67539;48.752;12.922;2023-02-18T04:03:05;1.83;;;1.40;;
78288;SDS011;67539;48.752;12.922;2023-02-18T04:05:33;1.60;;;1.50;;
78288;SDS011;67539;48.752;12.922;2023-02-18T04:08:02;1.60;;;1.50;;
78288;SDS011;67539;48.752;12.922;2023-02-18T04:10:31;1.40;;;1.30;;
78288;SDS011;67539;48.752;12.922;2023-02-18T04:13:00;1.60;;;1.50;;
78288;SDS011;67539;48.752;12.922;2023-02-18T04:15:28;1.50;;;1.40;;
78288;SDS011;67539;48.752;12.922;2023-02-18T04:17:56;1.13;;;1.13;;
78288;SDS011;67539;48.752;12.922;2023-02-18T04:20:24;1.37;;;1.33;;
78288;SDS011;67539;48.752;12.922;2023-02-18T04:22:52;1.53;;;1.43;;
78288;SDS011;67539;48.752;12.922;2023-02-18T04:25:20;1.77;;;1.20;;
78288;SDS011;67539;48.752;12.922;2023-02-18T04:27:49;1.83;;;1.73;;
78288;SDS011;67539;48.752;12.922;2023-02-18T04:30:19;1.30;;;1.20;;
78288;SDS011;67539;48.752;12.922;2023-02-18T04:32:47;1.57;;;1.47;;
78288;SDS011;67539;48.752;12.922;2023-02-18T04:35:15;1.93;;;1.60;;
78288;SDS011;67539;48.752;12.922;2023-02-18T04:37:43;1.50;;;1.33;;
78288;SDS011;67539;48.752;12.922;2023-02-18T04:40:11;1.20;;;1.20;;
78288;SDS011;67539;48.752;12.922;2023-02-18T04:42:39;1.30;;;1.20;;
78288;SDS011;67539;48.752;12.922;2023-02-18T04:45:08;1.00;;;1.00;;
78288;SDS011;67539;48.752;12.922;2023-02-18T04:47:37;1.40;;;1.30;;
78288;SDS011;67539;48.752;12.922;2023-02-18T04:50:06;2.43;;;1.43;;
78288;SDS011;67539;48.752;12.922;2023-02-18T04:52:34;1.30;;;1.30;;
78288;SDS011;67539;48.752;12.922;2023-02-18T04:55:03;2.30;;;1.13;;
78288;SDS011;67539;48.752;12.922;2023-02-18T04:57:31;1.43;;;1.33;;
78288;SDS011;67539;48.752;12.922;2023-02-18T04:59:59;1.60;;;1.50;;
78288;SDS011;67539;48.752;12.922;2023-02-18T05:02:29;1.87;;;1.77;;
78288;SDS011;67539;48.752;12.922;2023-02-18T05:04:59;1.80;;;1.70;;
78288;SDS011;67539;48.752;12.922;2023-02-18T05:07:27;1.60;;;1.50;;
78288;SDS011;67539;48.752;12.922;2023-02-18T05:09:55;1.80;;;1.70;;
78288;SDS011;67539;48.752;12.922;2023-02-18T05:12:23;1.30;;;1.30;;
78288;SDS011;67539;48.752;12.922;2023-02-18T05:14:51;2.07;;;1.97;;
78288;SDS011;67539;48.752;12.922;2023-02-18T05:17:19;2.93;;;1.90;;
78288;SDS011;67539;48.752;12.922;2023-02-18T05:19:47;1.63;;;1.60;;
78288;SDS011;67539;48.752;12.922;2023-02-18T05:22:16;1.57;;;1.30;;
78288;SDS011;67539;48.752;12.922;2023-02-18T05:24:44;1.70;;;1.57;;
78288;SDS011;67539;48.752;12.922;2023-02-18T05:27:12;1.80;;;1.70;;
78288;SDS011;67539;48.752;12.922;2023-02-18T05:29:41;1.93;;;1.83;;
78288;SDS011;67539;48.752;12.922;2023-02-18T05:32:09;3.10;;;2.80;;
78288;SDS011;67539;48.752;12.922;2023-02-18T05:34:37;1.60;;;1.50;;
78288;SDS011;67539;48.752;12.922;2023-02-18T05:37:05;2.27;;;2.17;;
78288;SDS011;67539;48.752;12.922;2023-02-18T05:39:34;2.13;;;2.03;;
78288;SDS011;67539;48.752;12.922;2023-02-18T05:42:02;2.30;;;2.10;;
78288;SDS011;67539;48.752;12.922;2023-02-18T05:44:31;2.37;;;2.27;;
78288;SDS011;67539;48.752;12.922;2023-02-18T05:47:00;2.13;;;2.03;;
78288;SDS011;67539;48.752;12.922;2023-02-18T05:49:30;3.30;;;2.97;;
78288;SDS011;67539;48.752;12.922;2023-02-18T05:51:59;2.53;;;2.33;;
78288;SDS011;67539;48.752;12.922;2023-02-18T05:54:28;2.83;;;2.53;;
78288;SDS011;67539;48.752;12.922;2023-02-18T05:56:57;3.20;;;3.00;;
78288;SDS011;67539;48.752;12.922;2023-02-18T05:59:26;3.00;;;2.70;;
78288;SDS011;67539;48.752;12.922;2023-02-18T06:01:54;2.43;;;2.30;;
78288;SDS011;67539;48.752;12.922;2023-02-18T06:04:22;2.70;;;2.60;;
78288;SDS011;67539;48.752;12.922;2023-02-18T06:06:50;2.83;;;2.63;;
78288;SDS011;67539;48.752;12.922;2023-02-18T06:09:18;3.77;;;2.90;;
78288;SDS011;67539;48.752;12.922;2023-02-18T06:11:46;3.17;;;2.90;;
78288;SDS011;67539;48.752;12.922;2023-02-18T06:14:16;3.60;;;3.30;;
78288;SDS011;67539;48.752;12.922;2023-02-18T06:16:44;3.57;;;3.37;;
78288;SDS011;67539;48.752;12.922;2023-02-18T06:19:12;3.87;;;3.37;;
78288;SDS011;67539;48.752;12.922;2023-02-18T06:21:40;3.27;;;2.97;;
78288;SDS011;67539;48.752;12.922;2023-02-18T06:24:09;3.13;;;2.93;;
78288;SDS011;67539;48.752;12.922;2023-02-18T06:26:37;3.63;;;3.10;;
78288;SDS011;67539;48.752;12.922;2023-02-18T06:29:05;4.20;;;3.30;;
78288;SDS011;67539;48.752;12.922;2023-02-18T06:31:34;3.93;;;3.03;;
78288;SDS011;67539;48.752;12.922;2023-02-18T06:34:02;4.07;;;3.77;;
78288;SDS011;67539;48.752;12.922;2023-02-18T06:36:30;4.07;;;3.73;;
78288;SDS011;67539;48.752;12.922;2023-02-18T06:39:01;3.20;;;3.00;;
78288;SDS011;67539;48.752;12.922;2023-02-18T06:41:30;3.07;;;2.87;;
78288;SDS011;67539;48.752;12.922;2023-02-18T06:43:58;3.33;;;3.07;;
78288;SDS011;67539;48.752;12.922;2023-02-18T06:46:26;5.40;;;3.30;;
78288;SDS011;67539;48.752;12.922;2023-02-18T06:48:56;3.20;;;3.00;;
78288;SDS011;67539;48.752;12.922;2023-02-18T06:51:24;2.90;;;2.70;;
78288;SDS011;67539;48.752;12.922;2023-02-18T06:53:52;2.63;;;2.53;;
78288;SDS011;67539;48.752;12.922;2023-02-18T06:56:20;3.90;;;3.60;;
78288;SDS011;67539;48.752;12.922;2023-02-18T06:58:48;3.50;;;3.30;;
78288;SDS011;67539;48.752;12.922;2023-02-18T07:01:16;2.63;;;2.43;;
78288;SDS011;67539;48.752;12.922;2023-02-18T07:03:44;2.30;;;2.20;;
78288;SDS011;67539;48.752;12.922;2023-02-18T07:06:16;2.40;;;2.30;;
78288;SDS011;67539;48.752;12.922;2023-02-18T07:08:44;2.60;;;2.50;;
78288;SDS011;67539;48.752;12.922;2023-02-18T07:11:13;3.00;;;2.80;;
78288;SDS011;67539;48.752;12.922;2023-02-18T07:13:41;1.90;;;1.80;;
78288;SDS011;67539;48.752;12.922;2023-02-18T07:16:09;1.83;;;1.73;;
78288;SDS011;67539;48.752;12.922;2023-02-18T07:18:37;2.30;;;2.20;;
78288;SDS011;67539;48.752;12.922;2023-02-18T07:21:05;4.20;;;2.87;;
78288;SDS011;67539;48.752;12.922;2023-02-18T07:23:35;1.97;;;1.87;;
78288;SDS011;67539;48.752;12.922;2023-02-18T07:26:04;2.20;;;2.10;;
78288;SDS011;67539;48.752;12.922;2023-02-18T07:28:34;2.70;;;2.50;;
78288;SDS011;67539;48.752;12.922;2023-02-18T07:31:02;2.20;;;2.00;;
78288;SDS011;67539;48.752;12.922;2023-02-18T07:33:31;2.10;;;2.00;;
78288;SDS011;67539;48.752;12.922;2023-02-18T07:35:59;2.20;;;2.10;;
78288;SDS011;67539;48.752;12.922;2023-02-18T07:38:29;2.10;;;1.90;;
78288;SDS011;67539;48.752;12.922;2023-02-18T07:40:59;1.97;;;1.80;;
78288;SDS011;67539;48.752;12.922;2023-02-18T07:43:27;2.23;;;2.03;;
78288;SDS011;67539;48.752;12.922;2023-02-18T07:45:55;2.50;;;2.27;;
78288;SDS011;67539;48.752;12.922;2023-02-18T07:48:23;2.33;;;2.23;;
78288;SDS011;67539;48.752;12.922;2023-02-18T07:50:51;2.43;;;2.23;;
78288;SDS011;67539;48.752;12.922;2023-02-18T07:53:19;2.00;;;1.90;;
78288;SDS011;67539;48.752;12.922;2023-02-18T07:55:47;2.80;;;2.60;;
78288;SDS011;67539;48.752;12.922;2023-02-18T07:58:17;2.00;;;1.90;;
78288;SDS011;67539;48.752;12.922;2023-02-18T08:00:47;2.73;;;2.00;;
78288;SDS011;67539;48.752;12.922;2023-02-18T08:03:16;2.20;;;2.00;;
78288;SDS011;67539;48.752;12.922;2023-02-18T08:05:46;2.00;;;1.80;;
78288;SDS011;67539;48.752;12.922;2023-02-18T08:08:15;2.07;;;1.93;;
78288;SDS011;67539;48.752;12.922;2023-02-18T08:10:46;2.10;;;2.00;;
78288;SDS011;67539;48.752;12.922;2023-02-18T08:13:15;2.73;;;2.53;;
78288;SDS011;67539;48.752;12.922;2023-02-18T08:15:44;2.07;;;1.97;;
78288;SDS011;67539;48.752;12.922;2023-02-18T08:18:14;2.53;;;2.43;;
78288;SDS011;67539;48.752;12.922;2023-02-18T08:20:43;4.23;;;4.03;;
78288;SDS011;67539;48.752;12.922;2023-02-18T08:23:12;2.67;;;2.57;;
78288;SDS011;67539;48.752;12.922;2023-02-18T08:25:43;2.07;;;1.97;;
78288;SDS011;67539;48.752;12.922;2023-02-18T08:28:15;1.87;;;1.77;;
78288;SDS011;67539;48.752;12.922;2023-02-18T08:30:45;2.03;;;1.90;;
78288;SDS011;67539;48.752;12.922;2023-02-18T08:33:13;4.23;;;2.13;;
78288;SDS011;67539;48.752;12.922;2023-02-18T08:35:42;2.37;;;2.27;;
78288;SDS011;67539;48.752;12.922;2023-02-18T08:38:11;3.10;;;2.90;;
78288;SDS011;67539;48.752;12.922;2023-02-18T08:40:40;2.43;;;2.33;;
78288;SDS011;67539;48.752;12.922;2023-02-18T08:43:08;2.30;;;2.20;;
78288;SDS011;67539;48.752;12.922;2023-02-18T08:45:36;3.80;;;2.53;;
78288;SDS011;67539;48.752;12.922;2023-02-18T08:48:06;2.67;;;2.57;;
78288;SDS011;67539;48.752;12.922;2023-02-18T08:50:46;2.10;;;1.83;;
78288;SDS011;67539;48.752;12.922;2023-02-18T08:53:14;1.80;;;1.70;;
78288;SDS011;67539;48.752;12.922;2023-02-18T08:55:43;2.00;;;1.90;;
78288;SDS011;67539;48.752;12.922;2023-02-18T08:58:11;2.07;;;1.97;;
78288;SDS011;67539;48.752;12.922;2023-02-18T09:00:39;2.13;;;2.03;;
78288;SDS011;67539;48.752;12.922;2023-02-18T09:03:11;2.10;;;2.00;;
78288;SDS011;67539;48.752;12.922;2023-02-18T09:05:40;1.87;;;1.77;;
78288;SDS011;67539;48.752;12.922;2023-02-18T09:08:08;2.20;;;2.10;;
78288;SDS011;67539;48.752;12.922;2023-02-18T09:10:36;2.30;;;2.03;;
78288;SDS011;67539;48.752;12.922;2023-02-18T09:13:04;3.10;;;2.10;;
78288;SDS011;67539;48.752;12.922;2023-02-18T09:15:33;2.20;;;2.00;;
78288;SDS011;67539;48.752;12.922;2023-02-18T09:18:01;2.17;;;2.07;;
78288;SDS011;67539;48.752;12.922;2023-02-18T09:20:30;1.87;;;1.73;;
78288;SDS011;67539;48.752;12.922;2023-02-18T09:22:58;2.57;;;2.37;;
78288;SDS011;67539;48.752;12.922;2023-02-18T09:25:29;1.93;;;1.83;;
78288;SDS011;67539;48.752;12.922;2023-02-18T09:27:57;2.10;;;2.00;;
78288;SDS011;67539;48.752;12.922;2023-02-18T09:30:25;2.07;;;1.97;;
78288;SDS011;67539;48.752;12.922;2023-02-18T09:32:53;3.30;;;3.00;;
78288;SDS011;67539;48.752;12.922;2023-02-18T09:35:22;2.47;;;2.27;;
78288;SDS011;67539;48.752;12.922;2023-02-18T09:37:51;2.07;;;1.97;;
78288;SDS011;67539;48.752;12.922;2023-02-18T09:40:23;3.00;;;2.80;;
78288;SDS011;67539;48.752;12.922;2023-02-18T09:42:53;2.00;;;1.90;;
78288;SDS011;67539;48.752;12.922;2023-02-18T09:45:23;3.97;;;3.67;;
78288;SDS011;67539;48.752;12.922;2023-02-18T09:47:51;2.30;;;2.20;;
78288;SDS011;67539;48.752;12.922;2023-02-18T09:50:21;2.80;;;2.70;;
78288;SDS011;67539;48.752;12.922;2023-02-18T09:52:52;2.97;;;2.77;;
78288;SDS011;67539;48.752;12.922;2023-02-18T09:55:21;2.03;;;1.93;;
78288;SDS011;67539;48.752;12.922;2023-02-18T09:57:54;1.70;;;1.60;;
78288;SDS011;67539;48.752;12.922;2023-02-18T10:00:27;1.97;;;1.87;;
78288;SDS011;67539;48.752;12.922;2023-02-18T10:02:59;2.77;;;2.50;;
78288;SDS011;67539;48.752;12.922;2023-02-18T10:05:29;2.30;;;2.10;;
78288;SDS011;67539;48.752;12.922;2023-02-18T10:08:01;2.57;;;2.10;;
78288;SDS011;67539;48.752;12.922;2023-02-18T10:10:34;4.23;;;2.10;;
78288;SDS011;67539;48.752;12.922;2023-02-18T10:13:06;3.27;;;2.30;;
78288;SDS011;67539;48.752;12.922;2023-02-18T10:15:39;1.80;;;1.70;;
78288;SDS011;67539;48.752;12.922;2023-02-18T10:18:13;2.33;;;2.23;;
78288;SDS011;67539;48.752;12.922;2023-02-18T10:20:49;2.47;;;2.27;;
78288;SDS011;67539;48.752;12.922;2023-02-18T10:23:20;2.50;;;1.80;;
78288;SDS011;67539;48.752;12.922;2023-02-18T10:25:50;2.50;;;1.73;;
78288;SDS011;67539;48.752;12.922;2023-02-18T10:28:18;2.03;;;1.90;;
78288;SDS011;67539;48.752;12.922;2023-02-18T10:30:51;2.60;;;2.50;;
78288;SDS011;67539;48.752;12.922;2023-02-18T10:33:31;3.63;;;3.43;;
78288;SDS011;67539;48.752;12.922;2023-02-18T10:36:03;2.57;;;2.20;;
78288;SDS011;67539;48.752;12.922;2023-02-18T10:38:52;1.83;;;1.73;;
78288;SDS011;67539;48.752;12.922;2023-02-18T10:41:31;2.07;;;1.97;;
78288;SDS011;67539;48.752;12.922;2023-02-18T10:44:08;2.30;;;2.20;;
78288;SDS011;67539;48.752;12.922;2023-02-18T10:46:44;3.00;;;2.70;;
78288;SDS011;67539;48.752;12.922;2023-02-18T10:49:26;1.97;;;1.87;;
78288;SDS011;67539;48.752;12.922;2023-02-18T10:52:08;2.47;;;2.00;;
78288;SDS011;67539;48.752;12.922;2023-02-18T10:54:53;1.90;;;1.80;;
78288;SDS011;67539;48.752;12.922;2023-02-18T10:57:29;3.80;;;3.50;;
78288;SDS011;67539;48.752;12.922;2023-02-18T11:00:00;2.03;;;1.93;;
78288;SDS011;67539;48.752;12.922;2023-02-18T11:02:37;3.30;;;2.10;;
78288;SDS011;67539;48.752;12.922;2023-02-18T11:05:15;2.67;;;2.10;;
78288;SDS011;67539;48.752;12.922;2023-02-18T11:07:47;2.43;;;2.33;;
78288;SDS011;67539;48.752;12.922;2023-02-18T11:10:21;2.27;;;2.17;;
78288;SDS011;67539;48.752;12.922;2023-02-18T11:12:53;1.97;;;1.87;;
78288;SDS011;67539;48.752;12.922;2023-02-18T11:15:24;1.90;;;1.80;;
78288;SDS011;67539;48.752;12.922;2023-02-18T11:17:54;2.17;;;2.07;;
78288;SDS011;67539;48.752;12.922;2023-02-18T11:20:30;2.00;;;1.80;;
78288;SDS011;67539;48.752;12.922;2023-02-18T11:23:13;1.97;;;1.83;;
78288;SDS011;67539;48.752;12.922;2023-02-18T11:25:59;1.77;;;1.67;;
78288;SDS011;67539;48.752;12.922;2023-02-18T11:28:30;1.87;;;1.77;;
78288;SDS011;67539;48.752;12.922;2023-02-18T11:31:07;2.10;;;2.00;;
78288;SDS011;67539;48.752;12.922;2023-02-18T11:33:38;2.50;;;1.60;;
78288;SDS011;67539;48.752;12.922;2023-02-18T11:36:15;1.60;;;1.50;;
78288;SDS011;67539;48.752;12.922;2023-02-18T11:38:51;2.47;;;1.70;;
78288;SDS011;67539;48.752;12.922;2023-02-18T11:41:28;1.63;;;1.53;;
78288;SDS011;67539;48.752;12.922;2023-02-18T11:43:58;2.40;;;1.80;;
78288;SDS011;67539;48.752;12.922;2023-02-18T11:46:28;2.10;;;2.00;;
78288;SDS011;67539;48.752;12.922;2023-02-18T11:48:56;1.60;;;1.50;;
78288;SDS011;67539;48.752;12.922;2023-02-18T11:51:46;1.90;;;1.80;;
78288;SDS011;67539;48.752;12.922;2023-02-18T11:54:21;1.67;;;1.57;;
78288;SDS011;67539;48.752;12.922;2023-02-18T11:56:57;1.20;;;1.20;;
78288;SDS011;67539;48.752;12.922;2023-02-18T11:59:31;4.50;;;1.57;;
78288;SDS011;67539;48.752;12.922;2023-02-18T12:02:02;1.60;;;1.50;;
78288;SDS011;67539;48.752;12.922;2023-02-18T12:04:49;1.73;;;1.63;;
78288;SDS011;67539;48.752;12.922;2023-02-18T12:07:23;1.83;;;1.73;;
78288;SDS011;67539;48.752;12.922;2023-02-18T12:09:53;1.33;;;1.33;;
78288;SDS011;67539;48.752;12.922;2023-02-18T12:12:26;1.80;;;1.70;;
78288;SDS011;67539;48.752;12.922;2023-02-18T12:14:56;1.80;;;1.70;;
78288;SDS011;67539;48.752;12.922;2023-02-18T12:17:33;3.00;;;1.50;;
78288;SDS011;67539;48.752;12.922;2023-02-18T12:20:18;1.90;;;1.80;;
78288;SDS011;67539;48.752;12.922;2023-02-18T12:23:04;1.70;;;1.60;;
78288;SDS011;67539;48.752;12.922;2023-02-18T12:25:39;4.03;;;1.23;;
78288;SDS011;67539;48.752;12.922;2023-02-18T12:28:19;2.17;;;1.70;;
78288;SDS011;67539;48.752;12.922;2023-02-18T12:33:56;1.40;;;1.30;;
78288;SDS011;67539;48.752;12.922;2023-02-18T12:36:38;1.33;;;1.23;;
78288;SDS011;67539;48.752;12.922;2023-02-18T12:39:19;1.43;;;1.10;;
78288;SDS011;67539;48.752;12.922;2023-02-18T12:42:12;2.20;;;1.70;;
78288;SDS011;67539;48.752;12.922;2023-02-18T12:44:55;2.00;;;1.90;;
78288;SDS011;67539;48.752;12.922;2023-02-18T12:47:37;1.23;;;1.20;;
78288;SDS011;67539;48.752;12.922;2023-02-18T12:50:21;1.30;;;1.30;;
78288;SDS011;67539;48.752;12.922;2023-02-18T12:53:09;1.50;;;1.50;;
78288;SDS011;67539;48.752;12.922;2023-02-18T12:56:01;1.73;;;1.17;;
78288;SDS011;67539;48.752;12.922;2023-02-18T12:58:39;3.73;;;1.43;;
78288;SDS011;67539;48.752;12.922;2023-02-18T13:04:23;1.20;;;1.20;;
78288;SDS011;67539;48.752;12.922;2023-02-18T13:07:04;1.20;;;1.03;;
78288;SDS011;67539;48.752;12.922;2023-02-18T13:10:00;1.23;;;1.13;;
78288;SDS011;67539;48.752;12.922;2023-02-18T13:12:50;1.40;;;1.00;;
78288;SDS011;67539;48.752;12.922;2023-02-18T13:15:27;1.83;;;1.30;;
78288;SDS011;67539;48.752;12.922;2023-02-18T13:18:05;1.30;;;1.20;;
78288;SDS011;67539;48.752;12.922;2023-02-18T13:20:39;1.33;;;1.23;;
78288;SDS011;67539;48.752;12.922;2023-02-18T13:23:12;1.90;;;1.03;;
78288;SDS011;67539;48.752;12.922;2023-02-18T13:25:44;1.10;;;1.10;;
78288;SDS011;67539;48.752;12.922;2023-02-18T13:28:17;1.27;;;1.03;;
78288;SDS011;67539;48.752;12.922;2023-02-18T13:30:53;1.20;;;1.10;;
78288;SDS011;67539;48.752;12.922;2023-02-18T13:33:33;1.57;;;1.20;;
78288;SDS011;67539;48.752;12.922;2023-02-18T13:36:10;2.50;;;1.10;;
78288;SDS011;67539;48.752;12.922;2023-02-18T13:38:52;1.60;;;1.20;;
78288;SDS011;67539;48.752;12.922;2023-02-18T13:41:28;1.20;;;1.10;;
78288;SDS011;67539;48.752;12.922;2023-02-18T13:44:00;2.93;;;1.30;;
78288;SDS011;67539;48.752;12.922;2023-02-18T13:46:46;1.20;;;0.93;;
78288;SDS011;67539;48.752;12.922;2023-02-18T13:49:17;1.57;;;1.10;;
78288;SDS011;67539;48.752;12.922;2023-02-18T13:51:48;1.27;;;1.17;;
78288;SDS011;67539;48.752;12.922;2023-02-18T13:54:18;1.50;;;1.30;;
78288;SDS011;67539;48.752;12.922;2023-02-18T13:56:51;1.00;;;1.00;;
78288;SDS011;67539;48.752;12.922;2023-02-18T13:59:24;1.03;;;0.93;;
78288;SDS011;67539;48.752;12.922;2023-02-18T14:02:06;1.30;;;1.20;;
78288;SDS011;67539;48.752;12.922;2023-02-18T14:04:52;1.03;;;1.00;;
78288;SDS011;67539;48.752;12.922;2023-02-18T14:07:38;1.03;;;1.03;;
78288;SDS011;67539;48.752;12.922;2023-02-18T14:10:26;1.47;;;1.17;;
78288;SDS011;67539;48.752;12.922;2023-02-18T14:13:00;2.03;;;1.23;;
78288;SDS011;67539;48.752;12.922;2023-02-18T14:15:51;0.90;;;0.90;;
78288;SDS011;67539;48.752;12.922;2023-02-18T14:18:24;3.00;;;1.47;;
78288;SDS011;67539;48.752;12.922;2023-02-18T14:21:03;2.37;;;1.50;;
78288;SDS011;67539;48.752;12.922;2023-02-18T14:24:01;1.33;;;1.20;;
78288;SDS011;67539;48.752;12.922;2023-02-18T14:26:32;1.43;;;1.00;;
78288;SDS011;67539;48.752;12.922;2023-02-18T14:29:04;1.07;;;1.07;;
78288;SDS011;67539;48.752;12.922;2023-02-18T14:31:44;1.07;;;1.07;;
78288;SDS011;67539;48.752;12.922;2023-02-18T14:34:22;1.00;;;1.00;;
78288;SDS011;67539;48.752;12.922;2023-02-18T14:37:30;2.40;;;1.50;;
78288;SDS011;67539;48.752;12.922;2023-02-18T14:40:25;1.30;;;1.20;;
78288;SDS011;67539;48.752;12.922;2023-02-18T14:43:05;1.20;;;1.13;;
78288;SDS011;67539;48.752;12.922;2023-02-18T14:45:47;1.50;;;1.07;;
78288;SDS011;67539;48.752;12.922;2023-02-18T14:48:37;1.30;;;1.30;;
78288;SDS011;67539;48.752;12.922;2023-02-18T14:51:13;1.47;;;1.13;;
78288;SDS011;67539;48.752;12.922;2023-02-18T14:53:44;1.23;;;1.20;;
78288;SDS011;67539;48.752;12.922;2023-02-18T14:56:15;1.67;;;1.57;;
78288;SDS011;67539;48.752;12.922;2023-02-18T14:58:46;1.73;;;1.63;;
78288;SDS011;67539;48.752;12.922;2023-02-18T15:01:18;2.47;;;2.27;;
78288;SDS011;67539;48.752;12.922;2023-02-18T15:03:47;4.53;;;3.77;;
78288;SDS011;67539;48.752;12.922;2023-02-18T15:06:23;2.50;;;1.63;;
78288;SDS011;67539;48.752;12.922;2023-02-18T15:08:54;1.80;;;1.70;;
78288;SDS011;67539;48.752;12.922;2023-02-18T15:11:23;5.30;;;5.00;;
78288;SDS011;67539;48.752;12.922;2023-02-18T15:13:57;5.47;;;4.97;;
78288;SDS011;67539;48.752;12.922;2023-02-18T15:16:29;6.03;;;5.53;;
78288;SDS011;67539;48.752;12.922;2023-02-18T15:19:00;4.00;;;3.70;;